Time;durP1;ratioP1;P1;durP2;ratioP2;P2;SDS_P1;SDS_P2;PMS_P1;PMS_P2;Temp;Humidity;BMP_temperature;BMP_pressure;BME280_temperature;BME280_humidity;BME280_pressure;Samples;Min_cycle;Max_cycle;Signal;HPM_P1;HPM_P2
2021/04/09 00:02:16;;;;;;;14.30;11.45;;;5.80;63.90;;;;;;5035571;28;20065;-68
2021/04/09 00:04:41;;;;;;;18.80;11.90;;;5.80;64.10;;;;;;5029600;28;20022;-68
2021/04/09 00:07:07;;;;;;;15.55;11.13;;;5.80;64.00;;;;;;5028463;28;20400;-68
2021/04/09 00:09:34;;;;;;;14.80;11.23;;;5.80;64.30;;;;;;5029807;28;20044;-68
2021/04/09 00:12:00;;;;;;;17.20;10.80;;;5.80;63.60;;;;;;5032293;28;20056;-69
2021/04/09 00:14:26;;;;;;;22.42;12.25;;;5.80;63.70;;;;;;5032504;28;20033;-69
2021/04/09 00:16:51;;;;;;;16.30;11.05;;;5.80;64.00;;;;;;5032244;28;20455;-69
2021/04/09 00:19:19;;;;;;;15.20;10.68;;;5.80;63.80;;;;;;5027022;28;20067;-69
2021/04/09 00:21:45;;;;;;;15.70;11.40;;;5.80;63.90;;;;;;5028495;28;20040;-68
2021/04/09 00:24:12;;;;;;;19.15;11.52;;;5.80;63.60;;;;;;5029795;28;20117;-69
2021/04/09 00:26:39;;;;;;;17.10;11.38;;;5.80;64.20;;;;;;5029028;28;20122;-68
2021/04/09 00:29:05;;;;;;;19.88;11.90;;;5.80;64.10;;;;;;5030619;28;20034;-68
2021/04/09 00:31:31;;;;;;;17.17;12.13;;;5.80;63.60;;;;;;5029813;28;20048;-69
2021/04/09 00:33:57;;;;;;;18.75;12.02;;;5.80;63.80;;;;;;5033978;28;20037;-68
2021/04/09 00:36:23;;;;;;;16.58;10.98;;;5.80;63.60;;;;;;5036793;28;20044;-69
2021/04/09 00:38:49;;;;;;;18.50;12.95;;;5.80;63.90;;;;;;5034516;28;20029;-68
2021/04/09 00:41:16;;;;;;;16.30;11.43;;;5.80;64.40;;;;;;5039777;28;20109;-69
2021/04/09 00:43:43;;;;;;;18.20;12.25;;;5.80;64.30;;;;;;5034557;28;20061;-68
2021/04/09 00:46:10;;;;;;;24.48;12.18;;;5.80;64.10;;;;;;5037080;28;20433;-69
2021/04/09 00:48:35;;;;;;;15.40;11.10;;;5.80;64.20;;;;;;5037603;28;20105;-69
2021/04/09 00:51:01;;;;;;;19.38;12.32;;;5.80;64.30;;;;;;5036269;28;20112;-68
2021/04/09 00:53:27;;;;;;;20.25;11.35;;;5.80;64.20;;;;;;5036797;28;20029;-69
2021/04/09 00:55:55;;;;;;;18.40;11.30;;;5.80;64.00;;;;;;5035504;28;20704;-69
2021/04/09 00:58:21;;;;;;;16.58;11.65;;;5.90;62.90;;;;;;5036275;28;20360;-68
2021/04/09 01:00:47;;;;;;;16.65;10.75;;;5.90;63.20;;;;;;5019716;28;20084;-68
2021/04/09 01:03:13;;;;;;;14.70;10.32;;;5.90;63.40;;;;;;5020406;28;20018;-68
2021/04/09 01:05:40;;;;;;;16.90;11.35;;;5.90;63.20;;;;;;5036017;28;20030;-69
2021/04/09 01:08:09;;;;;;;19.30;11.05;;;5.90;63.10;;;;;;5019618;28;20597;-68
2021/04/09 01:10:35;;;;;;;18.25;11.50;;;6.00;62.90;;;;;;5034638;28;20033;-69
2021/04/09 01:13:01;;;;;;;17.63;10.90;;;5.90;63.20;;;;;;5033047;28;20030;-68
2021/04/09 01:15:27;;;;;;;17.77;10.98;;;6.00;63.00;;;;;;5035130;28;20108;-68
2021/04/09 01:18:05;;;;;;;18.58;11.40;;;6.00;63.00;;;;;;5034440;28;20041;-68
2021/04/09 01:20:56;;;;;;;20.65;11.65;;;6.00;63.30;;;;;;5034679;28;20113;-68
2021/04/09 01:23:28;;;;;;;19.92;11.30;;;5.90;63.30;;;;;;5033391;28;20029;-68
2021/04/09 01:26:31;;;;;;;22.92;11.77;;;6.00;63.10;;;;;;5035202;28;20033;-68
2021/04/09 01:29:37;;;;;;;18.30;11.13;;;6.00;62.80;;;;;;5032592;28;20047;-68
2021/04/09 01:32:06;;;;;;;18.75;11.20;;;6.00;62.80;;;;;;5036757;28;20025;-69
2021/04/09 01:34:50;;;;;;;17.88;11.93;;;5.90;63.30;;;;;;5035936;28;20117;-68
2021/04/09 01:37:22;;;;;;;17.38;11.77;;;5.90;63.50;;;;;;5036127;28;20116;-68
2021/04/09 01:39:54;;;;;;;23.05;12.27;;;5.90;63.40;;;;;;5033653;28;20051;-68
2021/04/09 01:42:23;;;;;;;17.20;11.98;;;5.90;63.20;;;;;;5036410;28;20040;-68
2021/04/09 01:44:51;;;;;;;18.48;11.48;;;5.90;63.40;;;;;;5036383;28;20029;-69
2021/04/09 01:47:19;;;;;;;18.77;11.85;;;5.90;63.70;;;;;;5033769;28;20078;-69
2021/04/09 01:49:46;;;;;;;19.92;12.40;;;5.80;63.90;;;;;;5035835;28;20021;-69
2021/04/09 01:52:13;;;;;;;19.42;11.95;;;5.80;64.00;;;;;;5033132;28;20091;-68
2021/04/09 01:54:39;;;;;;;21.95;12.10;;;5.80;63.60;;;;;;5034905;28;20040;-68
2021/04/09 01:57:10;;;;;;;14.95;11.23;;;5.80;63.60;;;;;;5030741;28;20030;-68
2021/04/09 01:59:39;;;;;;;21.08;12.25;;;5.80;64.00;;;;;;5038277;28;20391;-68
2021/04/09 02:02:06;;;;;;;17.92;11.70;;;5.70;64.00;;;;;;5033947;28;20411;-70
2021/04/09 02:04:33;;;;;;;16.85;10.68;;;5.70;64.30;;;;;;5017648;28;20100;-68
2021/04/09 02:07:00;;;;;;;19.67;12.43;;;5.70;64.10;;;;;;5033928;28;20140;-69
2021/04/09 02:09:26;;;;;;;19.08;12.00;;;5.70;64.10;;;;;;5032935;28;20021;-71
2021/04/09 02:11:55;;;;;;;17.95;10.85;;;5.70;64.10;;;;;;5028689;28;20104;-69
2021/04/09 02:14:21;;;;;;;18.30;10.93;;;5.70;63.70;;;;;;5035161;28;20095;-69
2021/04/09 02:16:47;;;;;;;19.58;11.50;;;5.70;64.00;;;;;;5031539;28;20032;-69
2021/04/09 02:19:14;;;;;;;18.00;11.70;;;5.70;64.20;;;;;;5032680;28;20026;-69
2021/04/09 02:21:41;;;;;;;19.02;11.43;;;5.70;64.20;;;;;;5031625;28;20106;-69
2021/04/09 02:24:08;;;;;;;17.08;11.68;;;5.70;63.90;;;;;;5015451;28;20022;-70
2021/04/09 02:26:36;;;;;;;18.98;11.30;;;5.70;63.90;;;;;;5032435;28;20025;-69
2021/04/09 02:29:03;;;;;;;21.83;12.18;;;5.60;64.40;;;;;;5032013;28;20021;-69
2021/04/09 02:31:29;;;;;;;17.70;12.02;;;5.60;64.50;;;;;;5031973;28;20039;-69
2021/04/09 02:33:54;;;;;;;22.42;11.70;;;5.60;64.30;;;;;;5032918;28;20030;-69
2021/04/09 02:36:23;;;;;;;18.42;11.60;;;5.60;64.70;;;;;;5030481;28;20072;-69
2021/04/09 02:38:55;;;;;;;19.38;10.43;;;5.60;64.30;;;;;;5031344;28;20072;-69
2021/04/09 02:41:26;;;;;;;23.00;11.00;;;5.60;64.10;;;;;;5031951;28;20395;-69
2021/04/09 02:43:51;;;;;;;20.73;11.65;;;5.60;64.40;;;;;;5031900;28;20026;-69
2021/04/09 02:46:42;;;;;;;23.75;11.57;;;5.60;64.10;;;;;;5031103;28;20064;-69
2021/04/09 02:49:26;;;;;;;23.77;11.05;;;5.60;64.40;;;;;;5031924;28;20510;-69
2021/04/09 02:51:54;;;;;;;19.90;11.23;;;5.50;64.90;;;;;;5031325;28;20026;-69
2021/04/09 02:54:22;;;;;;;18.67;11.50;;;5.50;65.10;;;;;;5029929;28;20133;-69
2021/04/09 02:56:48;;;;;;;20.45;11.98;;;5.50;64.70;;;;;;5030473;28;20029;-69
2021/04/09 02:59:15;;;;;;;17.20;10.73;;;5.50;64.70;;;;;;5032603;28;20025;-69
2021/04/09 03:01:42;;;;;;;18.70;11.00;;;5.40;64.70;;;;;;5030888;28;20037;-69
2021/04/09 03:04:09;;;;;;;17.15;12.13;;;5.40;65.10;;;;;;5028275;28;20842;-69
2021/04/09 03:06:41;;;;;;;20.30;11.00;;;5.40;65.10;;;;;;5031559;28;20467;-69
2021/04/09 03:09:08;;;;;;;20.30;12.25;;;5.40;65.20;;;;;;5031662;28;20021;-69
2021/04/09 03:11:34;;;;;;;19.48;11.00;;;5.40;64.80;;;;;;5029493;28;20063;-69
2021/04/09 03:14:02;;;;;;;16.70;10.65;;;5.40;65.30;;;;;;5029825;28;20431;-69
2021/04/09 03:16:32;;;;;;;20.25;11.38;;;5.40;65.10;;;;;;5030612;28;20475;-68
2021/04/09 03:19:01;;;;;;;20.42;11.15;;;5.30;65.50;;;;;;5030954;28;20114;-69
2021/04/09 03:21:27;;;;;;;20.30;11.30;;;5.30;65.40;;;;;;5031806;28;20030;-68
2021/04/09 03:23:52;;;;;;;19.52;11.55;;;5.30;65.80;;;;;;5032359;28;20036;-69
2021/04/09 03:26:18;;;;;;;15.70;10.68;;;5.30;65.30;;;;;;5030873;28;20036;-69
2021/04/09 03:28:44;;;;;;;24.30;11.52;;;5.30;66.00;;;;;;5031532;28;20454;-68
2021/04/09 03:31:09;;;;;;;15.70;10.98;;;5.20;65.90;;;;;;5034688;28;20112;-69
2021/04/09 03:33:35;;;;;;;23.20;12.80;;;5.20;65.80;;;;;;5031365;28;20033;-69
2021/04/09 03:36:01;;;;;;;19.73;11.25;;;5.30;66.00;;;;;;5030012;28;20044;-69
2021/04/09 03:38:26;;;;;;;21.33;10.93;;;5.20;65.80;;;;;;5030724;28;20036;-69
2021/04/09 03:40:52;;;;;;;18.88;11.88;;;5.20;66.00;;;;;;5030892;28;20037;-69
2021/04/09 03:43:18;;;;;;;18.67;10.35;;;5.20;65.90;;;;;;5029454;28;20025;-69
2021/04/09 03:45:44;;;;;;;27.92;12.25;;;5.20;66.20;;;;;;5013402;28;20017;-69
2021/04/09 03:48:09;;;;;;;17.67;12.02;;;5.20;65.70;;;;;;5030248;28;20053;-68
2021/04/09 03:50:36;;;;;;;21.30;10.98;;;5.20;65.80;;;;;;5032785;28;20048;-69
2021/04/09 03:53:04;;;;;;;19.52;10.85;;;5.20;66.20;;;;;;5031720;28;20029;-68
2021/04/09 03:55:30;;;;;;;20.70;12.18;;;5.20;66.20;;;;;;5026160;28;20025;-69
2021/04/09 03:57:56;;;;;;;19.00;11.07;;;5.20;66.40;;;;;;5030429;28;20033;-69
2021/04/09 04:00:22;;;;;;;18.17;10.82;;;5.20;66.70;;;;;;5030076;28;20083;-69
2021/04/09 04:02:49;;;;;;;19.58;11.88;;;5.20;66.30;;;;;;5030136;28;20037;-69
2021/04/09 04:05:15;;;;;;;17.40;10.77;;;5.20;66.30;;;;;;5030900;28;20029;-69
2021/04/09 04:07:41;;;;;;;21.20;10.65;;;5.20;66.00;;;;;;5029705;28;20025;-70
2021/04/09 04:10:07;;;;;;;19.08;11.48;;;5.20;66.40;;;;;;5029561;28;20493;-69
2021/04/09 04:12:33;;;;;;;21.33;11.27;;;5.10;66.70;;;;;;5030006;28;20033;-70
2021/04/09 04:14:59;;;;;;;20.42;11.20;;;5.20;66.40;;;;;;5030330;28;20037;-69
2021/04/09 04:17:24;;;;;;;18.98;11.43;;;5.20;66.40;;;;;;5028949;28;20036;-69
2021/04/09 04:19:50;;;;;;;16.95;10.23;;;5.20;66.70;;;;;;5031127;28;20033;-69
2021/04/09 04:22:16;;;;;;;20.35;11.45;;;5.20;66.60;;;;;;5030776;28;20091;-69
2021/04/09 04:24:41;;;;;;;16.98;10.52;;;5.20;66.70;;;;;;5030290;28;20067;-69
2021/04/09 04:27:07;;;;;;;19.20;10.57;;;5.20;66.10;;;;;;5030261;28;20124;-69
2021/04/09 04:29:33;;;;;;;16.88;11.60;;;5.30;66.50;;;;;;5031095;28;20104;-68
2021/04/09 04:31:59;;;;;;;19.85;11.07;;;5.30;66.00;;;;;;5029281;28;20776;-69
2021/04/09 04:34:25;;;;;;;19.42;10.95;;;5.30;66.30;;;;;;5029413;28;20112;-69
2021/04/09 04:36:51;;;;;;;18.05;10.30;;;5.30;66.50;;;;;;5030454;28;20480;-69
2021/04/09 04:39:16;;;;;;;19.75;10.38;;;5.30;66.40;;;;;;5035331;28;20025;-69
2021/04/09 04:41:44;;;;;;;19.05;10.60;;;5.20;66.60;;;;;;5030538;28;20044;-68
2021/04/09 04:44:10;;;;;;;21.10;11.68;;;5.20;66.80;;;;;;5031111;28;20083;-69
2021/04/09 04:46:36;;;;;;;19.30;10.18;;;5.20;66.80;;;;;;5029325;28;20087;-70
2021/04/09 04:49:02;;;;;;;20.48;10.32;;;5.30;66.40;;;;;;5029584;28;20479;-69
2021/04/09 04:51:27;;;;;;;20.92;10.70;;;5.30;66.50;;;;;;5030190;28;20530;-69
2021/04/09 04:53:53;;;;;;;22.02;10.73;;;5.20;66.80;;;;;;5029759;28;20064;-68
2021/04/09 04:56:19;;;;;;;17.05;10.55;;;5.30;66.70;;;;;;5029304;28;20091;-69
2021/04/09 04:58:45;;;;;;;20.48;11.30;;;5.30;67.00;;;;;;5029766;28;20025;-69
2021/04/09 05:01:10;;;;;;;22.85;10.60;;;5.30;66.80;;;;;;5029584;28;20489;-69
2021/04/09 05:03:36;;;;;;;20.63;10.30;;;5.30;66.50;;;;;;5036459;28;20021;-68
2021/04/09 05:06:02;;;;;;;18.73;11.25;;;5.30;66.90;;;;;;5029602;28;20057;-69
2021/04/09 05:08:28;;;;;;;19.33;10.60;;;5.30;67.00;;;;;;5030309;28;20026;-68
2021/04/09 05:10:53;;;;;;;21.70;11.15;;;5.30;67.00;;;;;;5029508;28;20068;-68
2021/04/09 05:13:19;;;;;;;16.48;10.15;;;5.30;67.10;;;;;;5032177;28;20455;-69
2021/04/09 05:15:45;;;;;;;21.40;10.55;;;5.30;67.70;;;;;;5031582;28;20032;-69
2021/04/09 05:18:10;;;;;;;18.75;10.30;;;5.30;67.50;;;;;;5029980;28;20091;-68
2021/04/09 05:20:36;;;;;;;19.70;10.48;;;5.40;67.30;;;;;;5031384;28;20029;-69
2021/04/09 05:23:02;;;;;;;17.77;10.68;;;5.30;67.50;;;;;;5033897;28;20037;-69
2021/04/09 05:25:28;;;;;;;17.17;10.68;;;5.30;67.50;;;;;;5014396;28;20551;-70
2021/04/09 05:27:53;;;;;;;18.20;10.43;;;5.30;67.40;;;;;;5071508;22;20505;-67
2021/04/09 05:30:20;;;;;;;16.90;10.88;;;5.40;67.90;;;;;;5051123;28;20021;-67
2021/04/09 05:32:48;;;;;;;19.45;10.82;;;5.40;67.70;;;;;;5051513;28;20037;-67
2021/04/09 05:35:14;;;;;;;18.23;10.50;;;5.40;67.30;;;;;;5052736;28;20112;-67
2021/04/09 05:37:40;;;;;;;17.25;10.13;;;5.40;67.20;;;;;;5048305;28;20029;-67
2021/04/09 05:40:06;;;;;;;19.60;10.77;;;5.50;67.30;;;;;;5053192;28;20490;-67
2021/04/09 05:42:32;;;;;;;17.85;10.15;;;5.40;68.00;;;;;;5047393;28;20566;-66
2021/04/09 05:44:57;;;;;;;15.05;10.30;;;5.40;68.00;;;;;;5050198;28;20325;-66
2021/04/09 05:47:26;;;;;;;19.10;10.70;;;5.40;67.90;;;;;;5046674;28;20079;-68
2021/04/09 05:49:52;;;;;;;20.23;10.38;;;5.50;68.20;;;;;;5047518;28;20025;-66
2021/04/09 05:52:18;;;;;;;20.05;10.57;;;5.50;67.90;;;;;;5047472;28;20482;-69
2021/04/09 05:54:44;;;;;;;17.45;10.52;;;5.50;67.90;;;;;;5035545;28;20036;-67
2021/04/09 05:57:10;;;;;;;17.52;10.20;;;5.50;67.80;;;;;;5045691;28;20032;-68
2021/04/09 05:59:36;;;;;;;20.88;11.60;;;5.50;68.10;;;;;;5048926;28;20432;-68
2021/04/09 06:02:02;;;;;;;21.60;11.68;;;5.50;68.20;;;;;;5049185;28;20025;-68
2021/04/09 06:04:27;;;;;;;19.70;9.98;;;5.50;68.30;;;;;;5048015;28;20037;-68
2021/04/09 06:06:53;;;;;;;20.58;10.75;;;5.50;68.40;;;;;;5048819;28;20017;-67
2021/04/09 06:09:22;;;;;;;20.48;10.48;;;5.50;68.60;;;;;;5046854;28;20087;-67
2021/04/09 06:11:48;;;;;;;18.30;9.68;;;5.50;68.50;;;;;;5029257;28;20115;-69
2021/04/09 06:14:19;;;;;;;18.08;10.68;;;5.60;67.80;;;;;;5048279;28;20051;-66
2021/04/09 06:16:45;;;;;;;18.98;10.27;;;5.60;68.30;;;;;;5029891;28;20122;-67
2021/04/09 06:19:11;;;;;;;20.00;10.75;;;5.60;69.00;;;;;;5048434;28;20029;-67
2021/04/09 06:21:36;;;;;;;18.73;11.15;;;5.60;69.30;;;;;;5049627;28;20037;-67
2021/04/09 06:24:03;;;;;;;18.02;10.77;;;5.60;69.40;;;;;;5032107;28;20545;-66
2021/04/09 06:26:29;;;;;;;18.45;11.23;;;5.60;69.40;;;;;;5049168;28;20025;-66
2021/04/09 06:28:56;;;;;;;20.30;11.63;;;5.60;70.30;;;;;;5048370;28;20033;-66
2021/04/09 06:31:22;;;;;;;19.38;10.85;;;5.60;70.50;;;;;;5047217;28;20505;-67
2021/04/09 06:33:47;;;;;;;20.23;10.75;;;5.60;70.50;;;;;;5049026;28;20115;-67
2021/04/09 06:36:13;;;;;;;21.33;11.02;;;5.60;70.20;;;;;;5030787;28;20033;-69
2021/04/09 06:38:39;;;;;;;18.40;10.57;;;5.60;70.50;;;;;;5056752;28;20063;-69
2021/04/09 06:41:05;;;;;;;17.45;9.95;;;5.60;70.60;;;;;;5050218;28;20505;-67
2021/04/09 06:43:31;;;;;;;16.05;10.30;;;5.60;70.80;;;;;;5050333;28;20025;-69
2021/04/09 06:45:57;;;;;;;15.18;10.10;;;5.70;70.70;;;;;;5051681;28;20031;-68
2021/04/09 06:48:22;;;;;;;23.02;13.07;;;5.70;70.40;;;;;;5046551;28;20108;-69
2021/04/09 06:50:48;;;;;;;18.42;11.43;;;5.80;70.20;;;;;;5049584;28;20052;-69
2021/04/09 06:53:17;;;;;;;16.85;9.82;;;5.80;70.10;;;;;;5051151;28;20033;-69
2021/04/09 06:55:46;;;;;;;19.15;10.65;;;5.80;70.30;;;;;;5051345;28;20033;-69
2021/04/09 06:58:17;;;;;;;20.52;10.88;;;5.90;70.00;;;;;;5028891;28;20108;-69
2021/04/09 07:00:43;;;;;;;18.98;10.68;;;5.90;70.00;;;;;;5049561;28;20032;-69
2021/04/09 07:03:10;;;;;;;20.55;11.75;;;6.00;69.70;;;;;;5048833;28;20033;-75
2021/04/09 07:05:38;;;;;;;19.20;10.75;;;5.90;69.80;;;;;;5046405;28;20831;-68
2021/04/09 07:08:05;;;;;;;15.55;10.20;;;6.00;69.60;;;;;;5030812;28;20044;-69
2021/04/09 07:10:31;;;;;;;18.63;10.98;;;6.00;69.70;;;;;;5046605;28;20095;-69
2021/04/09 07:13:08;;;;;;;22.75;10.88;;;6.00;69.90;;;;;;5046975;28;20044;-68
2021/04/09 07:15:38;;;;;;;21.15;11.30;;;6.10;69.80;;;;;;5053662;28;20118;-68
2021/04/09 07:18:06;;;;;;;17.52;10.93;;;6.20;69.50;;;;;;5044050;28;20033;-70
2021/04/09 07:20:32;;;;;;;18.50;11.00;;;6.20;69.40;;;;;;5046245;28;20086;-67
2021/04/09 07:22:59;;;;;;;19.70;10.82;;;6.30;69.40;;;;;;5047131;28;20470;-68
2021/04/09 07:25:31;;;;;;;20.73;10.60;;;6.20;69.90;;;;;;5033084;28;20036;-68
2021/04/09 07:28:13;;;;;;;21.17;10.77;;;6.20;70.20;;;;;;5042576;28;20032;-69
2021/04/09 07:30:42;;;;;;;19.20;10.52;;;6.30;70.10;;;;;;5048458;28;20029;-68
2021/04/09 07:33:10;;;;;;;20.75;11.32;;;6.30;70.00;;;;;;5051643;28;20492;-68
2021/04/09 07:35:47;;;;;;;17.48;11.35;;;6.40;69.70;;;;;;5031686;28;20025;-68
2021/04/09 07:38:34;;;;;;;19.20;11.32;;;6.50;69.80;;;;;;5045054;28;20021;-67
2021/04/09 07:41:02;;;;;;;21.42;11.73;;;6.50;69.50;;;;;;5032283;28;20036;-67
2021/04/09 07:43:35;;;;;;;20.13;11.68;;;6.50;70.10;;;;;;5045723;28;20029;-67
2021/04/09 07:46:03;;;;;;;19.40;10.50;;;6.50;70.20;;;;;;5049391;28;20029;-67
2021/04/09 07:48:34;;;;;;;18.88;11.43;;;6.60;69.90;;;;;;5045792;28;20087;-68
2021/04/09 07:51:02;;;;;;;23.85;11.75;;;6.70;69.50;;;;;;5046145;28;20071;-69
2021/04/09 07:53:30;;;;;;;20.58;10.95;;;6.80;69.60;;;;;;5048940;28;20471;-68
2021/04/09 07:56:04;;;;;;;21.80;11.55;;;6.70;69.80;;;;;;5046971;28;20029;-67
2021/04/09 07:58:29;;;;;;;19.50;12.13;;;6.80;70.00;;;;;;5029631;28;20024;-68
2021/04/09 08:00:55;;;;;;;19.30;11.43;;;6.90;69.10;;;;;;5046594;28;20108;-67
2021/04/09 08:03:32;;;;;;;18.80;11.05;;;7.00;68.80;;;;;;5027885;28;20486;-68
2021/04/09 08:06:21;;;;;;;19.95;11.75;;;7.10;69.10;;;;;;5049821;28;20029;-68
2021/04/09 08:08:47;;;;;;;19.10;11.57;;;7.10;69.40;;;;;;5044831;28;20032;-67
2021/04/09 08:11:29;;;;;;;18.63;10.15;;;7.10;69.20;;;;;;5048796;28;20033;-67
2021/04/09 08:14:14;;;;;;;20.35;10.85;;;7.20;69.00;;;;;;5049826;28;20056;-68
2021/04/09 08:16:49;;;;;;;21.85;11.57;;;7.20;69.20;;;;;;5048009;28;20017;-68
2021/04/09 08:19:25;;;;;;;18.33;11.27;;;7.20;69.40;;;;;;5047867;28;20025;-67
2021/04/09 08:21:53;;;;;;;19.60;11.07;;;7.20;69.60;;;;;;5048260;28;20056;-67
2021/04/09 08:24:21;;;;;;;20.08;11.40;;;7.30;69.60;;;;;;5037356;28;20131;-67
2021/04/09 08:26:49;;;;;;;23.88;12.35;;;7.40;69.20;;;;;;5047895;28;20120;-67
2021/04/09 08:29:17;;;;;;;20.52;11.30;;;7.50;69.10;;;;;;5052456;28;20032;-68
2021/04/09 08:31:43;;;;;;;19.10;11.20;;;7.50;69.40;;;;;;5048026;28;20033;-69
2021/04/09 08:34:14;;;;;;;18.27;11.13;;;7.50;69.40;;;;;;5046021;28;20393;-68
2021/04/09 08:36:43;;;;;;;22.30;12.15;;;7.50;69.30;;;;;;5046658;28;20064;-67
2021/04/09 08:39:14;;;;;;;20.45;12.07;;;7.70;69.00;;;;;;5046516;28;20032;-67
2021/04/09 08:41:42;;;;;;;21.92;11.43;;;7.80;69.10;;;;;;5043678;28;20031;-67
2021/04/09 08:44:14;;;;;;;19.83;11.70;;;7.90;68.70;;;;;;5049183;28;20040;-68
2021/04/09 08:46:40;;;;;;;18.33;10.77;;;7.90;69.00;;;;;;5046798;28;20556;-69
2021/04/09 08:49:08;;;;;;;20.42;11.15;;;7.90;69.30;;;;;;5048374;28;20033;-69
2021/04/09 08:51:38;;;;;;;18.52;10.82;;;8.10;68.40;;;;;;5048003;28;20507;-68
2021/04/09 08:54:21;;;;;;;15.33;10.20;;;8.20;68.40;;;;;;5033714;28;20025;-68
2021/04/09 08:56:48;;;;;;;19.27;10.95;;;8.20;68.30;;;;;;5034033;28;20398;-69
2021/04/09 08:59:14;;;;;;;17.00;11.25;;;8.20;68.70;;;;;;5032614;28;20025;-67
2021/04/09 09:01:40;;;;;;;18.88;11.05;;;8.30;68.50;;;;;;5049500;28;20036;-68
2021/04/09 09:04:21;;;;;;;15.38;10.20;;;8.30;68.80;;;;;;5049552;28;20040;-68
2021/04/09 09:06:49;;;;;;;20.15;10.38;;;8.30;68.50;;;;;;5032484;28;20088;-67
2021/04/09 09:09:31;;;;;;;16.98;10.45;;;8.60;67.50;;;;;;5051328;28;20044;-66
2021/04/09 09:12:00;;;;;;;16.75;10.82;;;8.50;68.10;;;;;;5050634;28;20474;-66
2021/04/09 09:14:40;;;;;;;19.52;10.50;;;8.60;68.10;;;;;;5050853;28;20082;-66
2021/04/09 09:17:21;;;;;;;15.60;10.07;;;8.50;68.00;;;;;;5030721;28;20025;-67
2021/04/09 09:20:05;;;;;;;18.75;10.60;;;8.60;68.30;;;;;;5052710;28;20021;-67
2021/04/09 09:22:46;;;;;;;17.38;10.13;;;8.60;68.70;;;;;;5050407;28;20029;-67
2021/04/09 09:25:11;;;;;;;16.67;10.30;;;8.70;68.10;;;;;;5051074;28;20116;-68
2021/04/09 09:27:51;;;;;;;17.08;10.43;;;8.90;67.50;;;;;;5047215;28;20112;-67
2021/04/09 09:30:33;;;;;;;19.23;10.23;;;8.90;67.50;;;;;;5048797;28;20371;-69
2021/04/09 09:33:18;;;;;;;18.98;10.57;;;9.10;67.40;;;;;;5050397;28;20029;-68
2021/04/09 09:35:56;;;;;;;18.95;10.85;;;9.20;67.00;;;;;;5033247;28;20021;-67
2021/04/09 09:38:56;;;;;;;16.63;10.55;;;9.20;67.20;;;;;;5051146;28;20044;-67
2021/04/09 09:41:40;;;;;;;15.80;10.52;;;9.10;67.60;;;;;;5048688;28;20029;-68
2021/04/09 09:44:24;;;;;;;17.58;11.43;;;9.30;67.80;;;;;;5036899;28;20032;-68
2021/04/09 09:47:04;;;;;;;19.83;9.80;;;9.40;68.00;;;;;;5051103;28;20048;-68
2021/04/09 09:49:37;;;;;;;18.60;9.77;;;9.40;67.30;;;;;;5041748;28;20040;-68
2021/04/09 09:52:05;;;;;;;16.90;9.40;;;9.40;67.20;;;;;;5049395;28;20114;-67
2021/04/09 09:54:32;;;;;;;15.80;9.32;;;9.50;67.00;;;;;;5048035;28;20102;-68
2021/04/09 09:57:17;;;;;;;15.02;9.15;;;9.60;67.20;;;;;;5049087;28;20037;-66
2021/04/09 09:59:44;;;;;;;17.27;8.65;;;9.80;67.00;;;;;;5049307;28;20040;-77
2021/04/09 10:02:18;;;;;;;15.35;9.50;;;9.80;66.80;;;;;;5046535;28;20032;-67
2021/04/09 10:04:44;;;;;;;17.23;9.73;;;9.90;66.60;;;;;;5052906;28;20025;-68
2021/04/09 10:07:10;;;;;;;16.55;9.45;;;9.90;66.40;;;;;;5042603;28;20028;-70
2021/04/09 10:09:36;;;;;;;13.95;8.55;;;9.90;66.70;;;;;;5050475;28;20481;-67
2021/04/09 10:12:02;;;;;;;15.35;8.98;;;9.80;67.20;;;;;;5049564;28;20029;-69
2021/04/09 10:14:28;;;;;;;15.70;8.93;;;9.80;67.10;;;;;;5050912;28;20055;-68
2021/04/09 10:16:55;;;;;;;14.10;7.85;;;9.90;66.70;;;;;;5032422;28;20032;-69
2021/04/09 10:19:21;;;;;;;11.93;8.25;;;10.10;65.60;;;;;;5049363;28;20390;-69
2021/04/09 10:21:47;;;;;;;15.88;7.95;;;10.00;65.80;;;;;;5048062;28;20025;-68
2021/04/09 10:24:18;;;;;;;14.52;8.43;;;10.10;65.60;;;;;;5048009;28;20025;-70
2021/04/09 10:26:55;;;;;;;13.48;8.13;;;10.20;65.00;;;;;;5042639;28;20352;-69
2021/04/09 10:29:26;;;;;;;17.00;8.35;;;10.30;64.80;;;;;;5050430;28;20347;-68
2021/04/09 10:31:53;;;;;;;;;;;10.40;64.60;;;;;;5032556;28;20548;-69
2021/04/09 10:34:20;;;;;;;12.07;7.75;;;10.50;64.30;;;;;;5046935;28;19943;-68
2021/04/09 10:36:49;;;;;;;12.50;8.48;;;10.50;63.80;;;;;;5043750;28;20025;-69
2021/04/09 10:39:21;;;;;;;14.80;7.45;;;10.50;64.60;;;;;;5041016;28;20068;-68
2021/04/09 10:41:52;;;;;;;13.68;7.78;;;10.40;64.80;;;;;;5048413;28;20032;-68
2021/04/09 10:44:20;;;;;;;15.35;8.27;;;10.40;64.00;;;;;;5047383;28;20040;-67
2021/04/09 10:46:58;;;;;;;11.57;8.20;;;10.40;64.70;;;;;;5043851;28;20040;-69
2021/04/09 10:49:27;;;;;;;15.65;8.13;;;10.30;64.60;;;;;;5049902;28;20125;-69
2021/04/09 10:51:58;;;;;;;10.93;7.85;;;10.30;65.20;;;;;;5050178;28;20380;-68
2021/04/09 10:54:28;;;;;;;15.52;7.90;;;10.20;66.00;;;;;;5027435;28;20029;-69
2021/04/09 10:56:55;;;;;;;16.02;8.38;;;10.40;65.60;;;;;;5007419;28;20382;-68
2021/04/09 10:59:28;;;;;;;14.88;7.50;;;10.50;65.60;;;;;;5046818;28;20045;-69
2021/04/09 11:01:55;;;;;;;12.18;8.00;;;10.50;65.10;;;;;;5047513;28;20054;-70
2021/04/09 11:04:22;;;;;;;12.07;7.18;;;10.50;65.60;;;;;;5047591;28;20537;-69
2021/04/09 11:06:50;;;;;;;12.40;7.45;;;10.60;65.30;;;;;;5032729;28;20116;-69
2021/04/09 11:09:16;;;;;;;12.02;7.75;;;10.60;65.10;;;;;;5051352;28;20107;-69
2021/04/09 11:11:41;;;;;;;10.95;7.20;;;10.80;64.30;;;;;;5048147;28;20162;-68
2021/04/09 11:14:17;;;;;;;12.63;7.25;;;11.00;62.10;;;;;;5049357;28;20029;-67
2021/04/09 11:16:49;;;;;;;14.25;7.40;;;11.00;62.10;;;;;;5047397;28;20025;-68
2021/04/09 11:19:25;;;;;;;11.18;7.15;;;11.10;62.80;;;;;;5044398;28;20040;-69
2021/04/09 11:21:55;;;;;;;11.80;7.18;;;11.30;62.50;;;;;;5046722;28;20036;-69
2021/04/09 11:24:39;;;;;;;12.40;7.10;;;11.30;61.50;;;;;;5049089;28;20090;-73
2021/04/09 11:27:20;;;;;;;12.38;6.97;;;11.30;62.00;;;;;;5043324;28;20040;-67
2021/04/09 11:29:46;;;;;;;11.10;7.57;;;11.00;63.00;;;;;;5046438;28;20030;-69
2021/04/09 11:32:20;;;;;;;14.23;7.57;;;10.90;63.10;;;;;;5047262;28;20035;-68
2021/04/09 11:34:51;;;;;;;10.18;6.85;;;10.90;62.60;;;;;;5049814;28;20036;-70
2021/04/09 11:37:20;;;;;;;10.25;6.35;;;10.70;63.60;;;;;;5047366;28;20029;-68
2021/04/09 11:39:49;;;;;;;14.75;8.20;;;10.60;64.60;;;;;;5047165;28;20044;-67
2021/04/09 11:42:29;;;;;;;10.98;6.72;;;10.70;64.00;;;;;;5049279;28;20032;-69
2021/04/09 11:44:56;;;;;;;11.73;7.25;;;10.60;64.50;;;;;;5046982;28;20562;-68
2021/04/09 11:47:28;;;;;;;13.77;7.60;;;10.60;64.40;;;;;;5045425;28;20086;-68
2021/04/09 11:50:02;;;;;;;14.13;7.75;;;10.60;64.60;;;;;;5047178;28;20044;-66
2021/04/09 11:52:28;;;;;;;21.80;12.25;;;10.60;64.80;;;;;;5046356;28;20033;-68
2021/04/09 11:54:54;;;;;;;14.45;8.20;;;10.50;64.90;;;;;;5047232;28;20041;-69
2021/04/09 11:57:31;;;;;;;11.43;7.70;;;10.50;65.30;;;;;;5048445;28;20035;-69
2021/04/09 11:59:56;;;;;;;13.00;7.82;;;10.40;65.50;;;;;;5052555;28;20364;-68
2021/04/09 12:02:26;;;;;;;12.30;7.68;;;10.50;66.00;;;;;;5048190;28;20096;-67
2021/04/09 12:04:53;;;;;;;12.57;6.70;;;10.40;66.30;;;;;;5040533;28;20386;-68
2021/04/09 12:07:25;;;;;;;9.60;6.32;;;10.40;66.40;;;;;;5050508;28;20434;-67
2021/04/09 12:09:54;;;;;;;12.68;6.75;;;10.40;66.50;;;;;;5046095;28;20033;-69
2021/04/09 12:12:21;;;;;;;12.32;7.07;;;10.50;66.20;;;;;;5041561;28;20033;-68
2021/04/09 12:14:55;;;;;;;12.90;6.88;;;10.50;65.90;;;;;;5045117;28;20055;-67
2021/04/09 12:17:22;;;;;;;11.10;6.75;;;10.50;66.40;;;;;;5048955;28;20025;-68
2021/04/09 12:19:50;;;;;;;12.75;7.53;;;10.50;66.30;;;;;;5045838;28;20052;-70
2021/04/09 12:22:19;;;;;;;13.95;7.50;;;10.60;66.30;;;;;;5048002;28;20383;-69
2021/04/09 12:24:45;;;;;;;9.88;6.68;;;10.70;65.70;;;;;;5046125;28;20029;-69
2021/04/09 12:27:12;;;;;;;13.82;6.68;;;10.80;65.10;;;;;;5047257;28;20338;-69
2021/04/09 12:29:38;;;;;;;10.90;6.93;;;10.80;65.20;;;;;;5025245;28;20036;-68
2021/04/09 12:32:05;;;;;;;12.77;6.47;;;10.70;65.40;;;;;;5044924;28;20409;-69
2021/04/09 12:34:31;;;;;;;14.90;6.88;;;10.70;64.30;;;;;;5044598;28;20027;-68
2021/04/09 12:36:57;;;;;;;9.32;6.07;;;10.70;64.30;;;;;;5043969;28;20033;-68
2021/04/09 12:39:24;;;;;;;12.73;7.05;;;10.70;64.60;;;;;;5041815;28;20075;-69
2021/04/09 12:41:50;;;;;;;10.98;6.13;;;10.60;65.00;;;;;;5042574;28;20044;-68
2021/04/09 12:44:18;;;;;;;10.98;7.03;;;10.50;65.50;;;;;;5043876;28;20026;-67
2021/04/09 12:46:45;;;;;;;10.45;6.85;;;10.50;65.60;;;;;;5027087;28;20491;-68
2021/04/09 12:49:11;;;;;;;14.05;6.85;;;10.60;65.40;;;;;;5047929;28;20501;-68